Time;durP1;ratioP1;P1;durP2;ratioP2;P2;SDS_P1;SDS_P2;PMS_P1;PMS_P2;Temp;Humidity;BMP_temperature;BMP_pressure;BME280_temperature;BME280_humidity;BME280_pressure;Samples;Min_cycle;Max_cycle;Signal;HPM_P1;HPM_P2
2023/11/06 00:00:13;;;;;;;1.57;0.70;;;9.20;99.90;;;;;;5065931;28;20035;-79
2023/11/06 00:02:39;;;;;;;2.40;0.83;;;9.20;99.90;;;;;;5066186;28;20359;-80
2023/11/06 00:05:05;;;;;;;3.00;0.90;;;9.20;99.90;;;;;;5066702;28;20036;-79
2023/11/06 00:07:31;;;;;;;2.17;0.70;;;9.20;99.90;;;;;;5064437;28;20059;-79
2023/11/06 00:09:57;;;;;;;2.23;0.87;;;9.20;99.90;;;;;;5065684;28;20032;-80
2023/11/06 00:12:23;;;;;;;3.03;0.80;;;9.20;99.90;;;;;;5066708;28;20103;-79
2023/11/06 00:14:49;;;;;;;1.53;0.70;;;9.20;99.90;;;;;;5064647;28;20033;-80
2023/11/06 00:17:14;;;;;;;3.17;0.93;;;9.20;99.90;;;;;;5067330;28;21413;-79
2023/11/06 00:19:40;;;;;;;2.40;0.90;;;9.20;99.90;;;;;;5064669;28;20060;-79
2023/11/06 00:22:08;;;;;;;2.37;0.80;;;9.20;99.90;;;;;;5070785;28;20054;-79
2023/11/06 00:24:34;;;;;;;2.53;0.70;;;9.10;99.90;;;;;;5066218;28;20128;-79
2023/11/06 00:27:00;;;;;;;2.50;0.80;;;9.20;99.90;;;;;;5063446;28;20032;-79
2023/11/06 00:29:28;;;;;;;2.57;0.80;;;9.20;99.90;;;;;;5062316;28;20039;-80
2023/11/06 00:31:53;;;;;;;7.70;1.00;;;9.20;99.90;;;;;;5065086;28;20042;-80
2023/11/06 00:34:19;;;;;;;1.50;0.70;;;9.20;99.90;;;;;;5064617;28;20131;-80
2023/11/06 00:36:44;;;;;;;4.13;0.73;;;9.20;99.90;;;;;;5064363;28;20035;-79
2023/11/06 00:39:12;;;;;;;1.80;0.70;;;9.20;99.90;;;;;;5064765;28;20084;-79
2023/11/06 00:41:39;;;;;;;2.17;0.80;;;9.20;99.90;;;;;;5063925;28;20025;-80
2023/11/06 00:44:05;;;;;;;1.20;0.60;;;9.20;99.90;;;;;;5064878;28;20025;-78
2023/11/06 00:46:30;;;;;;;2.13;1.03;;;9.30;99.90;;;;;;5063798;28;20025;-79
2023/11/06 00:48:56;;;;;;;3.07;0.83;;;9.30;99.90;;;;;;5063864;28;20036;-80
2023/11/06 00:51:22;;;;;;;1.67;0.90;;;9.30;99.90;;;;;;5062650;28;20036;-80
2023/11/06 00:53:47;;;;;;;3.03;1.10;;;9.30;99.90;;;;;;5063182;28;20037;-80
2023/11/06 00:56:13;;;;;;;2.97;0.80;;;9.30;99.90;;;;;;5061783;28;20044;-80
2023/11/06 00:58:39;;;;;;;2.17;0.80;;;9.40;99.90;;;;;;5061802;28;20128;-80
2023/11/06 01:01:05;;;;;;;1.87;0.70;;;9.40;99.90;;;;;;5061026;28;20120;-81
2023/11/06 01:03:32;;;;;;;1.27;0.60;;;9.30;99.90;;;;;;5062001;28;20024;-79
2023/11/06 01:05:58;;;;;;;2.20;1.23;;;9.40;99.90;;;;;;5060404;28;20838;-80
2023/11/06 01:08:24;;;;;;;1.87;0.80;;;9.30;99.90;;;;;;5063027;28;20032;-80
2023/11/06 01:10:50;;;;;;;2.33;0.90;;;9.30;99.90;;;;;;5062069;28;20116;-79
2023/11/06 01:13:15;;;;;;;1.50;0.67;;;9.40;99.90;;;;;;5059257;28;20028;-80
2023/11/06 01:15:44;;;;;;;1.00;0.43;;;9.50;99.90;;;;;;5056610;28;20036;-79
2023/11/06 01:18:11;;;;;;;0.77;0.50;;;9.50;99.90;;;;;;5056993;28;20021;-80
2023/11/06 01:20:37;;;;;;;1.70;0.80;;;9.50;99.90;;;;;;5065576;28;20090;-80
2023/11/06 01:23:02;;;;;;;2.47;0.80;;;9.50;99.90;;;;;;5065325;28;20028;-79
2023/11/06 01:25:28;;;;;;;2.00;0.50;;;9.50;99.90;;;;;;5065771;28;20119;-79
2023/11/06 01:27:54;;;;;;;1.73;0.50;;;9.50;99.90;;;;;;5065838;28;20024;-79
2023/11/06 01:30:20;;;;;;;1.40;0.67;;;9.40;99.90;;;;;;5063743;28;20044;-80
2023/11/06 01:32:45;;;;;;;2.37;1.00;;;9.40;99.90;;;;;;5067822;28;20028;-80
2023/11/06 01:35:12;;;;;;;0.43;0.40;;;9.30;99.90;;;;;;5068050;28;20036;-80
2023/11/06 01:37:41;;;;;;;3.20;0.70;;;9.30;99.90;;;;;;5066368;28;20032;-80
2023/11/06 01:40:11;;;;;;;3.30;0.70;;;9.30;99.90;;;;;;5068566;28;20120;-79
2023/11/06 01:42:37;;;;;;;3.40;0.80;;;9.30;99.90;;;;;;5068018;28;20039;-80
2023/11/06 01:45:05;;;;;;;3.37;0.90;;;9.40;99.90;;;;;;5068212;28;20025;-79
2023/11/06 01:47:32;;;;;;;1.23;0.70;;;9.30;99.90;;;;;;5067642;28;21021;-80
2023/11/06 01:49:58;;;;;;;2.30;0.80;;;9.40;99.90;;;;;;5067643;28;20037;-81
2023/11/06 01:52:23;;;;;;;2.10;0.80;;;9.30;99.90;;;;;;5068423;28;20035;-79
2023/11/06 01:54:49;;;;;;;2.27;1.17;;;9.30;99.90;;;;;;5066416;28;20096;-78
2023/11/06 01:57:19;;;;;;;2.63;0.77;;;9.20;99.90;;;;;;5065692;28;20033;-80
2023/11/06 01:59:45;;;;;;;4.40;0.90;;;9.20;99.90;;;;;;5066831;28;20107;-79
2023/11/06 02:02:14;;;;;;;3.10;1.00;;;9.10;99.90;;;;;;5067508;28;20040;-80
2023/11/06 02:04:47;;;;;;;4.80;1.10;;;9.10;99.90;;;;;;5069128;28;20024;-80
2023/11/06 02:07:13;;;;;;;2.57;0.80;;;9.10;99.90;;;;;;5067790;28;20024;-80
2023/11/06 02:09:40;;;;;;;2.63;0.97;;;9.20;99.90;;;;;;5067611;28;20033;-79
2023/11/06 02:12:07;;;;;;;4.17;1.03;;;9.20;99.90;;;;;;5067152;28;20051;-80
2023/11/06 02:14:48;;;;;;;2.90;0.87;;;9.20;99.90;;;;;;5066272;28;20024;-79
2023/11/06 02:17:14;;;;;;;3.30;0.70;;;9.10;99.90;;;;;;5067477;28;20021;-79
2023/11/06 02:19:39;;;;;;;3.13;0.80;;;9.10;99.90;;;;;;5068286;28;20036;-79
2023/11/06 02:22:06;;;;;;;3.20;0.83;;;9.10;99.90;;;;;;5066358;28;20077;-80
2023/11/06 02:24:32;;;;;;;2.37;0.87;;;9.00;99.90;;;;;;5067675;28;20034;-80
2023/11/06 02:26:58;;;;;;;2.23;0.80;;;9.10;99.90;;;;;;5068655;28;20025;-79
2023/11/06 02:29:23;;;;;;;2.97;0.70;;;9.10;99.90;;;;;;5067166;28;20039;-80
2023/11/06 02:31:49;;;;;;;2.23;0.83;;;9.10;99.90;;;;;;5068743;28;20040;-79
2023/11/06 02:34:14;;;;;;;3.03;1.23;;;9.10;99.90;;;;;;5068613;28;20024;-79
2023/11/06 02:36:40;;;;;;;5.07;0.80;;;9.10;99.90;;;;;;5066610;28;20033;-79
2023/11/06 02:39:06;;;;;;;4.63;0.90;;;9.00;99.90;;;;;;5069966;28;20025;-79
2023/11/06 02:41:32;;;;;;;2.83;1.27;;;9.00;99.90;;;;;;5069661;28;20036;-79
2023/11/06 02:43:57;;;;;;;3.20;0.90;;;9.00;99.90;;;;;;5068743;28;20087;-79
2023/11/06 02:46:23;;;;;;;2.20;0.60;;;8.90;99.90;;;;;;5070241;28;20017;-80
2023/11/06 02:48:48;;;;;;;2.63;1.00;;;8.90;99.90;;;;;;5069222;28;20032;-79
2023/11/06 02:51:16;;;;;;;1.70;0.90;;;8.90;99.90;;;;;;5064580;28;20032;-80
2023/11/06 02:53:42;;;;;;;2.70;0.80;;;8.90;99.90;;;;;;5065806;28;20120;-79
2023/11/06 02:56:07;;;;;;;2.67;0.83;;;8.80;99.90;;;;;;5063621;28;20606;-80
2023/11/06 02:58:33;;;;;;;4.33;0.80;;;8.80;99.90;;;;;;5064668;28;20017;-80
2023/11/06 03:00:59;;;;;;;3.13;0.70;;;8.70;99.90;;;;;;5063856;28;20036;-80
2023/11/06 03:03:24;;;;;;;4.63;1.00;;;8.70;99.90;;;;;;5065984;28;20016;-79
2023/11/06 03:05:50;;;;;;;3.30;0.90;;;8.70;99.90;;;;;;5065196;28;20050;-79
2023/11/06 03:08:16;;;;;;;3.63;1.13;;;8.60;99.90;;;;;;5066257;28;20016;-79
2023/11/06 03:10:42;;;;;;;4.73;0.80;;;8.60;99.90;;;;;;5065020;28;20044;-79
2023/11/06 03:13:07;;;;;;;2.97;0.80;;;8.60;99.90;;;;;;5065069;28;20491;-79
2023/11/06 03:15:35;;;;;;;4.43;1.17;;;8.50;99.90;;;;;;5065850;28;20017;-78
2023/11/06 03:18:01;;;;;;;3.13;0.80;;;8.60;99.90;;;;;;5063474;28;20039;-80
2023/11/06 03:20:26;;;;;;;1.50;0.80;;;8.50;99.90;;;;;;5066582;28;20032;-79
2023/11/06 03:22:52;;;;;;;2.50;0.70;;;8.60;99.90;;;;;;5067389;28;20056;-80
2023/11/06 03:25:18;;;;;;;2.57;0.87;;;8.60;99.90;;;;;;5064097;28;20322;-80
2023/11/06 03:27:44;;;;;;;2.30;0.90;;;8.60;99.90;;;;;;5064949;28;20028;-79
2023/11/06 03:30:10;;;;;;;2.23;0.80;;;8.60;99.90;;;;;;5065912;28;20063;-79
2023/11/06 03:32:35;;;;;;;2.93;1.30;;;8.60;99.90;;;;;;5067003;28;20028;-79
2023/11/06 03:35:02;;;;;;;2.03;0.60;;;8.70;99.90;;;;;;5065361;28;20038;-81
2023/11/06 03:37:28;;;;;;;2.37;0.80;;;8.70;99.90;;;;;;5047523;28;20090;-80
2023/11/06 03:39:53;;;;;;;4.90;1.00;;;8.70;99.90;;;;;;5067439;28;20032;-80
2023/11/06 03:42:19;;;;;;;2.67;0.80;;;8.70;99.90;;;;;;5067372;28;20770;-80
2023/11/06 03:44:45;;;;;;;3.73;1.20;;;8.70;99.90;;;;;;5065622;28;20500;-79
2023/11/06 03:47:11;;;;;;;2.03;0.90;;;8.70;99.90;;;;;;5064972;28;20115;-81
2023/11/06 03:49:36;;;;;;;2.70;1.00;;;8.70;99.90;;;;;;5064264;28;20166;-78
2023/11/06 03:52:03;;;;;;;2.57;1.00;;;8.70;99.90;;;;;;5064846;28;20043;-80
2023/11/06 03:54:29;;;;;;;1.53;0.80;;;8.70;99.90;;;;;;5064717;28;20965;-81
2023/11/06 03:56:55;;;;;;;3.60;1.00;;;8.70;99.90;;;;;;5065640;28;20442;-79
2023/11/06 03:59:20;;;;;;;3.10;1.10;;;8.70;99.90;;;;;;5064716;28;20024;-80
2023/11/06 04:01:46;;;;;;;3.93;0.97;;;8.70;99.90;;;;;;5065782;28;20479;-80
2023/11/06 04:04:11;;;;;;;3.57;1.10;;;8.60;99.90;;;;;;5066577;28;20028;-79
2023/11/06 04:06:37;;;;;;;4.80;0.97;;;8.60;99.90;;;;;;5064272;28;20028;-79
2023/11/06 04:09:03;;;;;;;4.63;1.27;;;8.60;99.90;;;;;;5064691;28;20024;-79
2023/11/06 04:11:29;;;;;;;2.13;0.80;;;8.50;99.90;;;;;;5065904;28;20041;-79
2023/11/06 04:13:55;;;;;;;2.67;0.90;;;8.50;99.90;;;;;;5065395;28;20047;-79
2023/11/06 04:16:21;;;;;;;2.03;0.73;;;8.50;99.90;;;;;;5064142;28;20036;-79
2023/11/06 04:18:47;;;;;;;1.97;0.80;;;8.40;99.90;;;;;;5063740;28;20036;-79
2023/11/06 04:21:12;;;;;;;7.10;1.30;;;8.40;99.90;;;;;;5065241;28;20048;-79
2023/11/06 04:23:38;;;;;;;2.40;0.80;;;8.40;99.90;;;;;;5064157;28;20741;-79
2023/11/06 04:26:04;;;;;;;5.90;1.47;;;8.40;99.90;;;;;;5066077;28;20044;-80
2023/11/06 04:28:29;;;;;;;5.70;1.20;;;8.40;99.90;;;;;;5065550;28;20020;-79
2023/11/06 04:30:55;;;;;;;2.77;1.00;;;8.30;99.90;;;;;;5065966;28;20948;-79
2023/11/06 04:33:20;;;;;;;1.57;0.80;;;8.40;99.90;;;;;;5066311;28;20050;-81
2023/11/06 04:35:46;;;;;;;7.33;1.00;;;8.40;99.90;;;;;;5064353;28;20028;-79
2023/11/06 04:38:12;;;;;;;2.70;0.90;;;8.40;99.90;;;;;;5065158;28;20168;-79
2023/11/06 04:40:37;;;;;;;12.90;2.53;;;8.40;99.90;;;;;;5063867;28;20017;-79
2023/11/06 04:43:03;;;;;;;2.00;0.70;;;8.40;99.90;;;;;;5063750;28;20040;-81
2023/11/06 04:45:28;;;;;;;3.13;0.77;;;8.50;99.90;;;;;;5062855;28;20028;-79
2023/11/06 04:47:54;;;;;;;3.73;1.07;;;8.50;99.90;;;;;;5062268;28;20497;-79
2023/11/06 04:50:19;;;;;;;2.47;1.03;;;8.50;99.90;;;;;;5062244;28;20123;-79
2023/11/06 04:52:45;;;;;;;2.57;0.80;;;8.40;99.90;;;;;;5060850;28;20021;-81
2023/11/06 04:55:10;;;;;;;2.70;1.03;;;8.40;99.90;;;;;;5060160;28;20684;-80
2023/11/06 04:57:36;;;;;;;2.57;1.00;;;8.40;99.90;;;;;;5062060;28;20430;-79
2023/11/06 05:00:03;;;;;;;2.57;0.80;;;8.40;99.90;;;;;;5060993;28;20048;-80
2023/11/06 05:02:29;;;;;;;2.63;0.90;;;8.30;99.90;;;;;;5057233;28;20044;-80
2023/11/06 05:04:54;;;;;;;2.90;1.00;;;8.30;99.90;;;;;;5048250;28;20044;-80
2023/11/06 05:07:20;;;;;;;2.10;0.83;;;8.30;99.90;;;;;;5061377;28;20031;-80
2023/11/06 05:09:45;;;;;;;4.47;1.27;;;8.30;99.90;;;;;;5059893;28;20036;-79
2023/11/06 05:12:11;;;;;;;3.33;1.47;;;8.30;99.90;;;;;;5059329;28;20054;-80
2023/11/06 05:14:37;;;;;;;3.73;1.07;;;8.30;99.90;;;;;;5060204;28;20483;-80
2023/11/06 05:17:03;;;;;;;1.83;0.80;;;8.20;99.90;;;;;;5060249;28;20518;-80
2023/11/06 05:19:30;;;;;;;5.50;1.10;;;8.20;99.90;;;;;;5059152;28;20416;-80
2023/11/06 05:21:55;;;;;;;3.20;1.10;;;8.20;99.90;;;;;;5060679;28;20142;-80
2023/11/06 05:24:23;;;;;;;2.33;0.80;;;8.20;99.90;;;;;;5059649;28;20033;-80
2023/11/06 05:26:49;;;;;;;4.60;1.50;;;8.20;99.90;;;;;;5059377;28;20036;-74
2023/11/06 05:29:14;;;;;;;2.60;1.00;;;8.10;99.90;;;;;;5061339;28;20029;-80
2023/11/06 05:31:41;;;;;;;4.50;1.10;;;8.10;99.90;;;;;;5063467;28;20033;-81
2023/11/06 05:34:07;;;;;;;3.10;1.07;;;8.10;99.90;;;;;;5041550;28;20051;-80
2023/11/06 05:36:33;;;;;;;4.87;1.10;;;8.10;99.90;;;;;;5062790;28;20050;-80
2023/11/06 05:38:59;;;;;;;3.83;1.10;;;8.10;99.90;;;;;;5063799;28;20028;-81
2023/11/06 05:41:25;;;;;;;3.00;0.90;;;8.10;99.90;;;;;;5063704;28;20048;-81
2023/11/06 05:43:51;;;;;;;3.63;1.10;;;8.10;99.90;;;;;;5062660;28;20028;-80
2023/11/06 05:46:16;;;;;;;3.40;1.07;;;8.10;99.90;;;;;;5062359;28;20036;-81
2023/11/06 05:48:42;;;;;;;2.37;1.00;;;8.10;99.90;;;;;;5059024;28;20032;-80
2023/11/06 05:51:08;;;;;;;4.50;1.20;;;8.20;99.90;;;;;;5060041;28;20032;-81
2023/11/06 05:53:33;;;;;;;2.33;1.00;;;8.20;99.90;;;;;;5055620;28;20025;-80
2023/11/06 05:55:59;;;;;;;3.57;1.10;;;8.20;99.90;;;;;;5061849;28;20460;-80
2023/11/06 05:58:24;;;;;;;3.90;1.00;;;8.20;99.90;;;;;;5061559;28;20038;-80
2023/11/06 06:00:50;;;;;;;4.23;1.10;;;8.20;99.90;;;;;;5059858;28;20041;-80
2023/11/06 06:03:16;;;;;;;3.03;1.10;;;8.20;99.90;;;;;;5060633;28;20024;-80
2023/11/06 06:05:42;;;;;;;4.10;1.80;;;8.20;99.90;;;;;;5060574;28;20040;-80
2023/11/06 06:08:10;;;;;;;4.90;0.97;;;8.10;99.90;;;;;;5061032;28;20111;-81
2023/11/06 06:10:35;;;;;;;2.47;1.03;;;8.10;99.90;;;;;;5059100;28;20048;-81
2023/11/06 06:13:01;;;;;;;2.80;1.00;;;8.00;99.90;;;;;;5060995;28;20024;-80
2023/11/06 06:15:26;;;;;;;1.87;0.80;;;8.00;99.90;;;;;;5060752;28;20029;-80
2023/11/06 06:17:52;;;;;;;3.30;1.00;;;7.90;99.90;;;;;;5063431;28;20017;-80
2023/11/06 06:20:18;;;;;;;2.90;0.97;;;7.90;99.90;;;;;;5065121;28;20024;-80
2023/11/06 06:22:43;;;;;;;2.67;0.90;;;7.90;99.90;;;;;;5053885;28;20162;-80
2023/11/06 06:25:09;;;;;;;4.03;1.10;;;7.90;99.90;;;;;;5052902;28;20507;-81
2023/11/06 06:27:37;;;;;;;4.00;1.60;;;7.80;99.90;;;;;;5056230;28;20043;-80
2023/11/06 06:30:07;;;;;;;7.37;2.60;;;7.80;99.90;;;;;;5058597;28;20086;-81
2023/11/06 06:32:32;;;;;;;4.43;1.13;;;7.80;99.90;;;;;;5055564;28;20055;-82
2023/11/06 06:34:58;;;;;;;3.57;1.43;;;7.80;99.90;;;;;;5056823;28;20772;-82
2023/11/06 06:37:24;;;;;;;5.10;1.20;;;7.80;99.90;;;;;;5057828;28;20033;-81
2023/11/06 06:39:49;;;;;;;3.37;1.10;;;7.80;99.90;;;;;;5058268;28;20061;-81
2023/11/06 06:42:17;;;;;;;4.37;1.37;;;7.80;99.90;;;;;;5057532;28;20032;-81
2023/11/06 06:44:45;;;;;;;4.17;1.50;;;7.80;99.90;;;;;;5055893;28;20021;-82
2023/11/06 06:47:11;;;;;;;3.50;1.00;;;7.80;99.90;;;;;;5055184;28;21154;-82
2023/11/06 06:49:40;;;;;;;6.50;2.07;;;7.80;99.90;;;;;;5051999;28;20039;-81
2023/11/06 06:52:06;;;;;;;4.30;1.30;;;7.90;99.90;;;;;;5057697;28;20106;-80
2023/11/06 06:54:32;;;;;;;3.73;1.30;;;7.90;99.90;;;;;;5057074;28;20035;-82
2023/11/06 06:56:58;;;;;;;3.70;1.10;;;7.90;99.90;;;;;;5057013;28;20033;-82
2023/11/06 06:59:26;;;;;;;4.03;1.10;;;7.90;99.90;;;;;;5054823;28;20762;-81
2023/11/06 07:01:52;;;;;;;3.43;1.20;;;8.00;99.90;;;;;;5054320;28;20033;-81
2023/11/06 07:04:18;;;;;;;5.67;1.37;;;7.90;99.90;;;;;;5057303;28;20111;-82
2023/11/06 07:06:43;;;;;;;2.90;1.33;;;7.90;99.90;;;;;;5048833;28;20026;-81
2023/11/06 07:09:09;;;;;;;3.27;1.20;;;8.00;99.90;;;;;;5049875;28;21530;-82
2023/11/06 07:11:35;;;;;;;2.43;1.07;;;7.90;99.90;;;;;;5048032;28;20048;-82
2023/11/06 07:14:01;;;;;;;3.37;1.20;;;8.00;99.90;;;;;;5050102;28;20040;-82
2023/11/06 07:16:26;;;;;;;5.20;1.33;;;8.00;99.90;;;;;;5045325;28;21241;-82
2023/11/06 07:18:52;;;;;;;3.37;1.30;;;8.00;99.90;;;;;;5046623;28;20024;-82
2023/11/06 07:21:18;;;;;;;2.60;1.00;;;8.00;99.90;;;;;;5046408;28;20036;-82
2023/11/06 07:23:44;;;;;;;5.50;1.30;;;8.00;99.90;;;;;;5049914;28;21507;-81
2023/11/06 07:26:10;;;;;;;5.53;1.40;;;8.10;99.90;;;;;;5048210;28;20029;-82
2023/11/06 07:28:36;;;;;;;1.80;1.20;;;8.10;99.90;;;;;;5047215;28;20024;-82
2023/11/06 07:31:02;;;;;;;3.67;1.40;;;8.10;99.90;;;;;;5049967;28;20158;-82
2023/11/06 07:33:27;;;;;;;2.77;1.30;;;8.20;99.90;;;;;;5049335;28;20067;-82
2023/11/06 07:35:53;;;;;;;3.53;1.20;;;8.30;99.90;;;;;;5046461;28;20036;-81
2023/11/06 07:38:19;;;;;;;2.83;1.00;;;8.30;99.90;;;;;;5048660;28;20354;-81
2023/11/06 07:40:44;;;;;;;8.30;1.40;;;8.40;99.90;;;;;;5050084;28;20028;-81
2023/11/06 07:43:10;;;;;;;4.67;1.53;;;8.40;99.90;;;;;;5049874;28;20032;-81
2023/11/06 07:45:36;;;;;;;3.70;1.40;;;8.50;99.90;;;;;;5053297;28;20021;-82
2023/11/06 07:48:05;;;;;;;3.17;1.40;;;8.60;99.90;;;;;;5056995;28;20028;-82
2023/11/06 07:50:32;;;;;;;4.20;1.20;;;8.70;99.90;;;;;;5055021;28;20033;-83
2023/11/06 07:52:58;;;;;;;5.40;1.37;;;8.70;99.90;;;;;;5054704;28;20025;-82
2023/11/06 07:55:23;;;;;;;5.20;1.13;;;8.80;99.90;;;;;;5051102;28;20028;-82
2023/11/06 07:57:51;;;;;;;4.33;1.10;;;8.90;99.90;;;;;;5046857;28;20058;-81
2023/11/06 08:00:18;;;;;;;6.13;1.30;;;9.00;99.90;;;;;;5048668;28;20048;-83
2023/11/06 08:02:43;;;;;;;4.43;1.07;;;9.10;99.90;;;;;;5049863;28;20080;-83
2023/11/06 08:05:09;;;;;;;4.57;1.30;;;9.20;99.90;;;;;;5049759;28;20429;-84
2023/11/06 08:07:36;;;;;;;3.40;1.13;;;9.40;99.90;;;;;;5048146;28;20052;-83
2023/11/06 08:10:03;;;;;;;2.70;1.07;;;9.50;99.90;;;;;;5049662;28;20458;-83
2023/11/06 08:12:29;;;;;;;2.53;0.80;;;9.60;99.90;;;;;;5050676;28;20395;-84
2023/11/06 08:14:55;;;;;;;4.07;1.30;;;9.90;99.90;;;;;;5049908;28;20025;-83
2023/11/06 08:17:21;;;;;;;2.37;1.00;;;10.00;99.90;;;;;;5047774;28;20633;-84
2023/11/06 08:19:52;;;;;;;2.97;1.20;;;10.20;99.90;;;;;;5050409;28;20048;-83
2023/11/06 08:22:20;;;;;;;5.37;1.10;;;10.40;99.90;;;;;;5049329;28;20155;-83
2023/11/06 08:24:45;;;;;;;3.47;1.10;;;10.50;99.90;;;;;;5049259;28;20570;-83
2023/11/06 08:27:11;;;;;;;3.07;1.20;;;10.60;99.90;;;;;;5048412;28;20052;-83
2023/11/06 08:29:42;;;;;;;2.57;0.80;;;10.70;99.90;;;;;;5050290;28;20730;-82
2023/11/06 08:32:11;;;;;;;4.07;1.07;;;10.70;99.90;;;;;;5049108;28;20031;-83
2023/11/06 08:34:43;;;;;;;2.57;1.10;;;10.80;99.90;;;;;;5047114;28;20071;-83
2023/11/06 08:37:11;;;;;;;2.57;0.90;;;11.00;99.90;;;;;;5048565;28;20477;-83
2023/11/06 08:39:46;;;;;;;1.83;0.90;;;11.00;99.90;;;;;;5049087;28;20020;-84
2023/11/06 08:42:13;;;;;;;;;;;11.00;99.90;;;;;;5056936;28;20032;-83
2023/11/06 08:44:43;;;;;;;4.63;1.15;;;11.10;99.90;;;;;;5056834;28;19918;-83
2023/11/06 08:47:12;;;;;;;1.70;0.70;;;11.10;99.90;;;;;;5054488;28;20095;-83
2023/11/06 08:49:38;;;;;;;1.97;0.90;;;11.10;99.90;;;;;;5053026;28;20037;-83
2023/11/06 08:52:04;;;;;;;2.25;0.98;;;11.20;99.90;;;;;;5057314;28;20048;-82
2023/11/06 08:54:37;;;;;;;2.55;0.88;;;11.20;99.90;;;;;;5055623;28;20029;-83
2023/11/06 08:57:03;;;;;;;2.15;0.73;;;11.20;99.90;;;;;;5058846;28;20119;-83
2023/11/06 08:59:29;;;;;;;4.30;1.02;;;11.20;99.90;;;;;;5063788;28;20088;-83
2023/11/06 09:01:55;;;;;;;2.40;0.95;;;11.20;99.90;;;;;;5064802;28;20028;-84
2023/11/06 09:04:20;;;;;;;1.87;0.70;;;11.20;99.90;;;;;;5061437;28;20029;-83
2023/11/06 09:06:46;;;;;;;1.50;0.90;;;11.30;99.90;;;;;;5062600;28;20020;-83
2023/11/06 09:09:12;;;;;;;4.15;1.08;;;11.30;99.90;;;;;;5062577;28;20088;-83
2023/11/06 09:11:42;;;;;;;3.88;1.27;;;11.30;99.90;;;;;;5059811;28;20033;-83
2023/11/06 09:14:09;;;;;;;2.57;1.00;;;11.30;99.90;;;;;;5061130;28;20021;-83
2023/11/06 09:16:35;;;;;;;3.63;1.20;;;11.30;99.90;;;;;;5059617;28;20025;-83
2023/11/06 09:19:02;;;;;;;5.15;0.80;;;11.30;99.90;;;;;;5058970;28;20032;-83
2023/11/06 09:21:28;;;;;;;3.33;1.00;;;11.30;99.90;;;;;;5058239;28;20032;-83
2023/11/06 09:23:53;;;;;;;4.18;1.70;;;11.40;99.90;;;;;;5057544;28;20033;-83
2023/11/06 09:26:19;;;;;;;1.35;0.70;;;11.40;99.90;;;;;;5057052;28;21057;-83
2023/11/06 09:28:45;;;;;;;2.53;1.10;;;11.40;99.90;;;;;;5060239;28;20096;-83
2023/11/06 09:31:12;;;;;;;4.13;0.90;;;11.50;99.90;;;;;;5061149;28;20043;-80
2023/11/06 09:33:38;;;;;;;4.20;0.90;;;11.50;99.90;;;;;;5062324;28;20033;-81
2023/11/06 09:36:06;;;;;;;4.50;1.20;;;11.50;99.90;;;;;;5060820;28;20090;-80
2023/11/06 09:38:32;;;;;;;2.70;0.75;;;11.50;99.90;;;;;;5061852;28;20029;-81
2023/11/06 09:40:58;;;;;;;3.92;1.17;;;11.50;99.90;;;;;;5061850;28;20044;-81
2023/11/06 09:43:24;;;;;;;3.00;0.95;;;11.60;99.90;;;;;;5060930;28;20040;-81
2023/11/06 09:45:51;;;;;;;3.57;1.00;;;11.70;99.90;;;;;;5057267;28;20032;-82
2023/11/06 09:48:18;;;;;;;1.55;0.77;;;11.70;99.90;;;;;;5057884;28;20033;-81
2023/11/06 09:50:46;;;;;;;1.10;0.70;;;11.70;99.90;;;;;;5058043;28;20036;-81
2023/11/06 09:53:12;;;;;;;2.15;0.82;;;11.70;99.90;;;;;;5061019;28;20391;-82
2023/11/06 09:55:40;;;;;;;1.65;0.70;;;11.80;99.90;;;;;;5058501;28;20037;-81
2023/11/06 09:58:06;;;;;;;2.70;1.10;;;11.80;99.90;;;;;;5055539;28;20040;-81
2023/11/06 10:00:32;;;;;;;2.83;1.08;;;11.90;99.90;;;;;;5063389;28;20025;-80
2023/11/06 10:02:57;;;;;;;2.67;1.15;;;11.90;99.90;;;;;;5061070;28;20033;-80
2023/11/06 10:05:24;;;;;;;2.95;1.00;;;12.00;99.90;;;;;;5059072;28;20047;-80
2023/11/06 10:07:54;;;;;;;1.17;0.85;;;12.10;99.90;;;;;;5061595;28;20076;-80
2023/11/06 10:10:22;;;;;;;2.22;0.93;;;12.20;99.90;;;;;;5059099;28;20033;-81
2023/11/06 10:13:05;;;;;;;2.75;1.10;;;12.30;99.90;;;;;;5057682;28;20042;-80
2023/11/06 10:15:34;;;;;;;3.05;0.98;;;12.20;99.90;;;;;;5059214;28;21426;-81
2023/11/06 10:18:18;;;;;;;3.17;1.05;;;12.30;99.90;;;;;;5058743;28;20032;-80
2023/11/06 10:20:45;;;;;;;1.83;0.60;;;12.30;99.90;;;;;;5057537;28;20020;-81
2023/11/06 10:23:11;;;;;;;2.40;0.85;;;12.30;99.90;;;;;;5061128;28;20080;-81
2023/11/06 10:25:37;;;;;;;2.95;0.82;;;12.40;99.90;;;;;;5058837;28;20036;-81
2023/11/06 10:28:17;;;;;;;2.55;0.80;;;12.50;99.90;;;;;;5059003;28;20017;-81
2023/11/06 10:30:51;;;;;;;2.53;0.82;;;12.50;99.90;;;;;;5059521;28;20040;-81
2023/11/06 10:33:18;;;;;;;1.65;0.80;;;12.60;99.90;;;;;;5059031;28;20032;-82
2023/11/06 10:35:44;;;;;;;2.50;0.85;;;12.70;99.90;;;;;;5058338;28;20056;-81
2023/11/06 10:38:29;;;;;;;2.33;0.77;;;12.60;99.90;;;;;;5057806;28;20111;-81
2023/11/06 10:40:59;;;;;;;;;;;12.60;99.90;;;;;;5060839;28;20126;-81
2023/11/06 10:43:24;;;;;;;2.03;0.77;;;12.60;99.90;;;;;;5057898;28;19908;-80
2023/11/06 10:45:51;;;;;;;1.98;0.80;;;12.60;99.90;;;;;;5058878;28;20039;-81
2023/11/06 10:49:03;;;;;;;1.90;0.70;;;12.70;99.90;;;;;;5060346;28;20032;-81
2023/11/06 10:51:31;;;;;;;1.65;0.82;;;12.70;99.90;;;;;;5054256;28;20040;-81
2023/11/06 10:53:59;;;;;;;2.25;0.50;;;12.80;99.90;;;;;;5058490;28;20027;-81
2023/11/06 10:56:25;;;;;;;1.38;0.50;;;12.90;99.90;;;;;;5059148;28;20506;-81
2023/11/06 10:58:54;;;;;;;1.17;0.68;;;12.90;99.90;;;;;;5058526;28;20067;-81
2023/11/06 11:01:20;;;;;;;3.65;0.80;;;13.00;99.90;;;;;;5059325;28;20028;-80
2023/11/06 11:03:48;;;;;;;0.68;0.60;;;13.00;99.90;;;;;;5056887;28;20073;-81
2023/11/06 11:06:13;;;;;;;2.95;0.88;;;13.10;99.90;;;;;;5060710;28;20121;-80
2023/11/06 11:08:39;;;;;;;1.60;0.60;;;13.10;99.90;;;;;;5059575;28;20975;-81
2023/11/06 11:11:06;;;;;;;0.98;0.80;;;13.20;99.90;;;;;;5062805;28;20748;-81
2023/11/06 11:13:31;;;;;;;0.75;0.60;;;13.30;99.90;;;;;;5062025;28;20535;-81
2023/11/06 11:16:36;;;;;;;1.83;0.70;;;13.30;99.90;;;;;;5059957;28;20044;-80
2023/11/06 11:19:17;;;;;;;2.35;0.68;;;13.20;99.90;;;;;;5056428;28;20024;-81
2023/11/06 11:22:05;;;;;;;1.08;0.50;;;13.10;99.90;;;;;;5058778;28;20107;-81
2023/11/06 11:24:46;;;;;;;2.30;0.73;;;13.10;99.90;;;;;;5054696;28;20016;-80
2023/11/06 11:27:21;;;;;;;0.98;0.52;;;13.00;99.90;;;;;;5057351;28;20025;-80
2023/11/06 11:29:52;;;;;;;;;;;13.00;99.90;;;;;;5056721;28;20036;-82
2023/11/06 11:32:20;;;;;;;2.85;0.50;;;13.00;99.90;;;;;;5055851;28;19915;-81
2023/11/06 11:34:45;;;;;;;1.80;0.50;;;13.10;99.90;;;;;;5057158;28;20025;-81
2023/11/06 11:37:26;;;;;;;2.33;0.77;;;13.30;99.90;;;;;;5060820;28;20025;-81
2023/11/06 11:39:52;;;;;;;3.65;0.60;;;13.50;99.90;;;;;;5060901;28;20163;-81
2023/11/06 11:42:18;;;;;;;0.73;0.40;;;13.60;99.90;;;;;;5056088;28;20070;-80
2023/11/06 11:45:06;;;;;;;2.08;0.60;;;13.60;99.90;;;;;;5056893;28;20091;-80
2023/11/06 11:47:47;;;;;;;2.70;0.70;;;13.70;99.90;;;;;;5058074;28;20071;-80
2023/11/06 11:50:36;;;;;;;8.07;0.80;;;13.70;99.90;;;;;;5052540;28;21280;-76
2023/11/06 11:53:03;;;;;;;2.28;0.88;;;13.90;99.90;;;;;;5051945;28;20055;-76
2023/11/06 11:55:34;;;;;;;1.05;0.40;;;14.00;99.90;;;;;;5049335;28;20143;-76
2023/11/06 11:58:05;;;;;;;3.13;0.60;;;14.00;99.90;;;;;;5048944;28;20029;-76
2023/11/06 12:00:34;;;;;;;1.73;0.63;;;14.00;99.90;;;;;;5050508;28;20032;-76
2023/11/06 12:03:07;;;;;;;1.52;0.60;;;14.00;99.90;;;;;;5052708;28;20053;-81
2023/11/06 12:05:33;;;;;;;0.60;0.50;;;14.00;99.90;;;;;;5057722;28;20089;-81
2023/11/06 12:07:59;;;;;;;2.38;0.60;;;14.00;99.90;;;;;;5043199;28;20115;-81
2023/11/06 12:10:28;;;;;;;0.63;0.50;;;14.10;99.90;;;;;;5049235;28;20083;-81
2023/11/06 12:12:56;;;;;;;2.15;0.60;;;14.10;99.90;;;;;;5049553;28;20051;-82
2023/11/06 12:15:31;;;;;;;2.42;0.65;;;14.10;99.90;;;;;;5048430;28;20032;-81
2023/11/06 12:18:08;;;;;;;1.55;0.50;;;14.10;99.90;;;;;;5050265;28;20032;-81
2023/11/06 12:20:34;;;;;;;2.88;0.65;;;14.20;99.90;;;;;;5048352;28;20032;-81
2023/11/06 12:23:03;;;;;;;3.50;0.70;;;14.30;99.90;;;;;;5048394;28;20043;-81
2023/11/06 12:25:33;;;;;;;1.15;0.63;;;14.50;99.90;;;;;;5051599;28;20048;-81
2023/11/06 12:28:08;;;;;;;2.85;0.82;;;14.60;99.90;;;;;;5050298;28;20029;-82
2023/11/06 12:30:35;;;;;;;1.48;0.52;;;14.40;99.90;;;;;;5049219;28;20041;-81
2023/11/06 12:33:17;;;;;;;1.88;0.68;;;14.40;99.90;;;;;;5048737;28;20068;-81
2023/11/06 12:35:44;;;;;;;0.98;0.60;;;14.20;99.90;;;;;;5049948;28;20079;-82
2023/11/06 12:38:10;;;;;;;1.00;0.60;;;14.30;99.90;;;;;;5047903;28;20114;-81
2023/11/06 12:40:41;;;;;;;1.23;0.50;;;14.30;99.90;;;;;;5047904;28;20041;-80
2023/11/06 12:43:07;;;;;;;1.35;0.60;;;14.30;99.90;;;;;;5048502;28;20029;-81
2023/11/06 12:45:35;;;;;;;2.58;0.75;;;14.30;99.90;;;;;;5047072;28;20017;-81
2023/11/06 12:48:26;;;;;;;1.10;0.50;;;14.30;99.90;;;;;;5046093;28;20054;-81
2023/11/06 12:50:59;;;;;;;0.65;0.50;;;14.20;99.90;;;;;;5044926;28;20028;-81
2023/11/06 12:53:26;;;;;;;0.75;0.55;;;14.20;99.90;;;;;;5047773;28;20716;-81
2023/11/06 12:55:52;;;;;;;0.73;0.50;;;14.10;99.90;;;;;;5047056;28;20104;-81